Time;durP1;ratioP1;P1;durP2;ratioP2;P2;SDS_P1;SDS_P2;PMS_P1;PMS_P2;Temp;Humidity;BMP_temperature;BMP_pressure;BME280_temperature;BME280_humidity;BME280_pressure;Samples;Min_cycle;Max_cycle;Signal;HPM_P1;HPM_P2
2022/03/24 00:00:38;;;;;;;6.85;3.72;;;2.70;59.50;;;;;;5044646;28;20068;-74
2022/03/24 00:03:08;;;;;;;9.05;4.75;;;2.40;61.00;;;;;;5044258;28;20024;-75
2022/03/24 00:05:34;;;;;;;8.05;3.70;;;2.50;61.30;;;;;;5048705;28;20037;-75
2022/03/24 00:08:01;;;;;;;11.43;7.03;;;2.60;59.60;;;;;;5037833;28;20143;-75
2022/03/24 00:10:27;;;;;;;4.50;3.13;;;2.50;60.40;;;;;;5052369;28;20107;-76
2022/03/24 00:12:52;;;;;;;8.85;5.10;;;2.40;60.90;;;;;;5051368;28;20455;-75
2022/03/24 00:15:19;;;;;;;5.55;3.25;;;2.30;60.90;;;;;;5047824;28;20575;-76
2022/03/24 00:17:44;;;;;;;7.70;3.65;;;2.30;60.70;;;;;;5044568;28;20067;-76
2022/03/24 00:20:12;;;;;;;7.75;4.50;;;2.10;60.90;;;;;;5049344;28;20032;-75
2022/03/24 00:22:38;;;;;;;9.27;5.72;;;2.20;61.40;;;;;;5039653;28;20033;-75
2022/03/24 00:25:04;;;;;;;8.32;5.05;;;2.30;61.40;;;;;;5048516;28;20090;-75
2022/03/24 00:27:30;;;;;;;8.85;3.83;;;2.50;61.90;;;;;;5050250;28;20151;-75
2022/03/24 00:29:56;;;;;;;10.75;5.90;;;2.30;60.30;;;;;;5031089;28;20052;-75
2022/03/24 00:32:22;;;;;;;11.77;6.40;;;2.00;61.40;;;;;;5048067;28;20041;-75
2022/03/24 00:34:48;;;;;;;17.88;11.00;;;2.10;62.40;;;;;;5036147;28;20106;-76
2022/03/24 00:37:13;;;;;;;10.10;6.53;;;2.40;62.20;;;;;;5032302;28;20560;-76
2022/03/24 00:39:40;;;;;;;7.78;4.97;;;2.50;62.40;;;;;;5042205;28;21344;-75
2022/03/24 00:42:08;;;;;;;10.00;6.55;;;2.30;62.20;;;;;;5035699;28;20049;-75
2022/03/24 00:44:35;;;;;;;10.25;6.05;;;2.40;62.00;;;;;;5040904;28;20036;-75
2022/03/24 00:47:02;;;;;;;5.85;4.00;;;2.50;61.70;;;;;;5045778;28;20033;-75
2022/03/24 00:49:28;;;;;;;8.75;5.50;;;2.50;61.50;;;;;;5047325;28;20474;-74
2022/03/24 00:51:54;;;;;;;8.75;4.72;;;2.40;62.00;;;;;;5044455;28;20048;-75
2022/03/24 00:54:20;;;;;;;8.70;5.18;;;2.30;62.20;;;;;;5045837;28;20444;-75
2022/03/24 00:56:46;;;;;;;9.90;4.63;;;2.20;62.80;;;;;;5033786;28;20037;-75
2022/03/24 00:59:12;;;;;;;8.07;5.13;;;2.10;64.20;;;;;;5050063;28;20041;-75
2022/03/24 01:01:39;;;;;;;7.45;4.70;;;2.20;63.90;;;;;;5048240;28;20545;-75
2022/03/24 01:04:09;;;;;;;9.82;5.88;;;2.40;63.10;;;;;;5049099;28;20036;-75
2022/03/24 01:06:35;;;;;;;8.95;5.60;;;2.40;63.60;;;;;;5048712;28;20053;-75
2022/03/24 01:09:02;;;;;;;10.85;7.18;;;2.60;62.90;;;;;;5046904;28;20043;-75
2022/03/24 01:11:28;;;;;;;8.57;4.57;;;2.80;62.10;;;;;;5044522;28;20035;-74
2022/03/24 01:13:54;;;;;;;9.05;5.70;;;2.60;61.10;;;;;;5044350;28;20497;-75
2022/03/24 01:16:19;;;;;;;9.63;4.93;;;2.40;63.10;;;;;;5039805;28;20154;-75
2022/03/24 01:18:45;;;;;;;11.65;4.28;;;2.50;62.60;;;;;;5048434;28;20048;-75
2022/03/24 01:21:16;;;;;;;9.43;4.00;;;2.50;62.00;;;;;;5029284;28;20985;-75
2022/03/24 01:23:43;;;;;;;8.00;4.13;;;2.60;62.50;;;;;;5011537;28;20037;-75
2022/03/24 01:26:09;;;;;;;10.70;5.15;;;2.60;62.20;;;;;;5044615;28;21076;-75
2022/03/24 01:28:35;;;;;;;9.00;4.22;;;2.70;62.20;;;;;;5048615;28;20040;-74
2022/03/24 01:31:01;;;;;;;14.77;8.50;;;2.60;62.20;;;;;;5050424;28;20055;-75
2022/03/24 01:33:27;;;;;;;7.25;4.13;;;2.40;63.10;;;;;;5041539;28;20451;-75
2022/03/24 01:35:53;;;;;;;7.35;4.50;;;2.30;63.70;;;;;;5047839;28;20662;-75
2022/03/24 01:38:19;;;;;;;8.15;4.82;;;2.30;63.20;;;;;;5045947;28;20134;-75
2022/03/24 01:40:45;;;;;;;6.75;4.93;;;2.40;62.80;;;;;;5049138;28;20044;-75
2022/03/24 01:43:11;;;;;;;7.18;4.20;;;2.40;63.20;;;;;;5047799;28;20793;-75
2022/03/24 01:45:38;;;;;;;5.75;3.83;;;2.40;63.10;;;;;;5045902;28;20044;-75
2022/03/24 01:48:10;;;;;;;6.43;3.38;;;2.50;62.20;;;;;;5049085;28;20053;-75
2022/03/24 01:50:36;;;;;;;;;;;2.60;61.60;;;;;;5052058;28;20041;-75
2022/03/24 01:53:02;;;;;;;4.20;2.88;;;2.50;62.50;;;;;;5051259;28;20705;-76
2022/03/24 01:55:28;;;;;;;6.25;3.47;;;2.50;61.80;;;;;;5049672;28;20087;-76
2022/03/24 01:57:55;;;;;;;6.47;3.53;;;2.30;63.10;;;;;;5052958;28;20033;-75
2022/03/24 02:00:22;;;;;;;6.93;3.70;;;2.10;63.50;;;;;;5047833;28;20025;-75
2022/03/24 02:02:48;;;;;;;5.13;3.08;;;2.10;64.10;;;;;;5051949;28;20647;-76
2022/03/24 02:05:14;;;;;;;7.05;3.45;;;2.10;64.40;;;;;;5049400;28;20128;-76
2022/03/24 02:07:40;;;;;;;6.30;3.58;;;2.10;63.80;;;;;;5052039;28;20569;-76
2022/03/24 02:10:09;;;;;;;7.57;4.82;;;2.20;63.80;;;;;;5050517;28;20036;-75
2022/03/24 02:12:35;;;;;;;5.63;3.83;;;2.10;64.00;;;;;;5049049;28;20033;-76
2022/03/24 02:15:01;;;;;;;7.30;3.65;;;2.00;63.60;;;;;;5052246;28;20436;-75
2022/03/24 02:17:30;;;;;;;8.55;3.15;;;2.10;64.10;;;;;;5051039;28;20389;-75
2022/03/24 02:19:59;;;;;;;6.93;3.65;;;1.80;64.20;;;;;;5051213;28;20036;-75
2022/03/24 02:22:28;;;;;;;5.55;3.70;;;1.80;64.70;;;;;;5052306;28;20395;-76
2022/03/24 02:24:54;;;;;;;6.35;3.80;;;2.10;63.70;;;;;;5054585;28;20583;-76
2022/03/24 02:27:24;;;;;;;6.15;3.33;;;2.30;63.90;;;;;;5047117;28;20068;-75
2022/03/24 02:29:51;;;;;;;4.40;2.78;;;2.10;64.30;;;;;;5051393;28;20308;-75
2022/03/24 02:32:19;;;;;;;5.47;3.30;;;1.90;64.60;;;;;;5050552;28;20051;-76
2022/03/24 02:34:48;;;;;;;7.97;4.20;;;1.60;65.00;;;;;;5052208;28;20055;-76
2022/03/24 02:37:22;;;;;;;6.38;4.70;;;1.90;65.00;;;;;;5054403;28;20123;-75
2022/03/24 02:39:53;;;;;;;10.63;4.50;;;2.10;64.70;;;;;;5052626;28;20072;-75
2022/03/24 02:42:21;;;;;;;4.80;3.10;;;2.10;64.60;;;;;;5053894;28;20037;-75
2022/03/24 02:44:56;;;;;;;6.13;3.25;;;1.80;65.40;;;;;;5051150;28;20734;-75
2022/03/24 02:47:23;;;;;;;5.18;3.40;;;1.80;65.00;;;;;;5041890;28;20045;-75
2022/03/24 02:49:50;;;;;;;6.38;3.75;;;1.90;64.60;;;;;;5057304;28;20528;-75
2022/03/24 02:52:17;;;;;;;11.50;7.18;;;2.10;63.30;;;;;;5056410;28;20416;-75
2022/03/24 02:54:43;;;;;;;5.68;3.58;;;2.40;63.40;;;;;;5043307;28;20040;-75
2022/03/24 02:57:10;;;;;;;7.43;4.18;;;2.60;61.80;;;;;;5052908;28;20045;-75
2022/03/24 02:59:36;;;;;;;7.50;5.15;;;2.80;61.30;;;;;;5053583;28;20045;-75
2022/03/24 03:02:06;;;;;;;6.03;3.80;;;2.80;61.70;;;;;;5050737;28;20064;-76
2022/03/24 03:04:34;;;;;;;9.60;4.07;;;3.00;60.70;;;;;;5047289;28;20037;-76
2022/03/24 03:07:02;;;;;;;7.88;4.35;;;3.20;59.80;;;;;;5048237;28;20095;-75
2022/03/24 03:09:29;;;;;;;8.38;4.18;;;3.30;59.90;;;;;;5048833;28;20135;-75
2022/03/24 03:11:56;;;;;;;8.13;4.30;;;3.20;59.30;;;;;;5046748;28;20172;-76
2022/03/24 03:14:22;;;;;;;7.32;4.35;;;3.20;59.80;;;;;;5045883;28;21304;-76
2022/03/24 03:16:48;;;;;;;8.98;4.63;;;2.90;61.00;;;;;;5046683;28;20045;-77
2022/03/24 03:19:17;;;;;;;5.40;3.72;;;2.90;61.00;;;;;;5045071;28;20051;-76
2022/03/24 03:21:43;;;;;;;4.90;3.40;;;3.00;61.70;;;;;;5044576;28;20044;-76
2022/03/24 03:24:10;;;;;;;6.40;3.65;;;3.10;60.20;;;;;;5043503;28;20474;-77
2022/03/24 03:26:36;;;;;;;6.35;4.38;;;3.30;60.10;;;;;;5048528;28;20043;-76
2022/03/24 03:29:03;;;;;;;10.15;5.80;;;3.20;60.00;;;;;;5050743;28;20040;-76
2022/03/24 03:31:29;;;;;;;8.13;4.90;;;3.00;60.70;;;;;;5050916;28;20064;-76
2022/03/24 03:33:56;;;;;;;8.50;3.90;;;2.90;61.10;;;;;;5051434;28;20032;-76
2022/03/24 03:36:22;;;;;;;7.10;3.47;;;2.90;61.70;;;;;;5053285;28;20043;-77
2022/03/24 03:38:48;;;;;;;17.20;11.15;;;2.80;61.30;;;;;;5051713;28;20036;-76
2022/03/24 03:41:15;;;;;;;9.88;5.97;;;2.80;61.60;;;;;;5052850;28;20681;-76
2022/03/24 03:43:42;;;;;;;6.88;4.30;;;2.80;61.60;;;;;;5054133;28;20033;-76
2022/03/24 03:46:09;;;;;;;7.72;4.30;;;2.70;61.80;;;;;;5053101;28;20040;-76
2022/03/24 03:48:39;;;;;;;9.88;3.92;;;2.80;61.90;;;;;;5054410;28;20041;-76
2022/03/24 03:51:10;;;;;;;7.97;4.40;;;2.70;61.90;;;;;;5049770;28;20762;-76
2022/03/24 03:53:36;;;;;;;4.80;3.75;;;2.80;62.10;;;;;;5052501;28;20045;-76
2022/03/24 03:56:04;;;;;;;5.97;3.83;;;2.70;62.50;;;;;;5046510;28;20078;-76
2022/03/24 03:58:30;;;;;;;10.27;3.90;;;2.70;62.70;;;;;;5055273;28;20025;-76
2022/03/24 04:00:58;;;;;;;5.93;4.20;;;2.80;62.30;;;;;;5053346;28;20791;-76
2022/03/24 04:03:29;;;;;;;9.93;5.10;;;2.90;62.90;;;;;;5036909;28;21081;-76
2022/03/24 04:05:56;;;;;;;11.30;3.60;;;2.70;62.90;;;;;;5044357;28;20528;-76
2022/03/24 04:08:22;;;;;;;5.35;3.90;;;2.70;62.70;;;;;;5048765;28;20797;-76
2022/03/24 04:10:49;;;;;;;8.20;5.40;;;2.60;63.70;;;;;;5046761;28;20072;-76
2022/03/24 04:13:19;;;;;;;5.35;3.92;;;2.50;63.50;;;;;;5046534;28;20523;-75
2022/03/24 04:15:46;;;;;;;7.15;4.30;;;2.40;64.10;;;;;;5045161;28;20037;-75
2022/03/24 04:18:13;;;;;;;32.97;18.63;;;2.50;63.30;;;;;;5053311;28;20053;-75
2022/03/24 04:20:39;;;;;;;18.10;11.95;;;2.70;62.60;;;;;;5051901;28;20033;-75
2022/03/24 04:23:05;;;;;;;67.07;38.03;;;2.90;62.00;;;;;;5043496;28;20812;-76
2022/03/24 04:25:33;;;;;;;72.13;42.90;;;3.00;61.60;;;;;;5047690;28;20041;-76
2022/03/24 04:27:59;;;;;;;86.75;46.97;;;2.90;61.80;;;;;;5047874;28;20044;-76
2022/03/24 04:30:26;;;;;;;100.13;51.47;;;2.70;62.30;;;;;;5046071;28;20052;-76
2022/03/24 04:32:52;;;;;;;65.57;33.95;;;2.60;63.40;;;;;;5050611;28;20045;-76
2022/03/24 04:35:18;;;;;;;50.47;26.63;;;2.50;64.00;;;;;;5052550;28;20048;-76
2022/03/24 04:37:44;;;;;;;28.67;14.48;;;2.40;63.70;;;;;;5052340;28;20036;-76
2022/03/24 04:40:11;;;;;;;33.95;18.88;;;2.30;64.30;;;;;;5050684;28;20394;-76
2022/03/24 04:42:39;;;;;;;22.42;12.82;;;2.10;65.40;;;;;;5053675;28;20089;-76
2022/03/24 04:45:06;;;;;;;20.60;11.27;;;2.10;65.50;;;;;;5048933;28;20079;-76
2022/03/24 04:47:32;;;;;;;17.83;10.35;;;2.10;65.60;;;;;;5048879;28;20132;-76
2022/03/24 04:49:58;;;;;;;17.45;10.88;;;1.90;66.00;;;;;;5048500;28;20032;-76
2022/03/24 04:52:24;;;;;;;24.58;13.68;;;1.90;66.60;;;;;;5046520;28;20045;-76
2022/03/24 04:54:50;;;;;;;24.15;14.45;;;2.00;66.90;;;;;;5049324;28;20033;-76
2022/03/24 04:57:16;;;;;;;27.40;16.20;;;2.10;66.60;;;;;;5050113;28;21080;-76
2022/03/24 04:59:42;;;;;;;31.23;12.93;;;2.20;66.00;;;;;;5051595;28;20040;-76
2022/03/24 05:02:12;;;;;;;28.65;14.30;;;2.20;66.00;;;;;;5027602;28;20071;-76
2022/03/24 05:04:37;;;;;;;17.25;10.90;;;2.20;66.40;;;;;;5034473;28;20036;-76
2022/03/24 05:07:04;;;;;;;18.98;11.82;;;2.20;66.40;;;;;;5052604;28;20080;-76
2022/03/24 05:09:29;;;;;;;18.75;10.93;;;2.20;67.20;;;;;;5050509;28;20397;-76
2022/03/24 05:11:55;;;;;;;16.80;9.85;;;2.00;67.10;;;;;;5048749;28;20043;-76
2022/03/24 05:14:21;;;;;;;25.40;10.77;;;1.90;67.50;;;;;;5050146;28;21214;-76
2022/03/24 05:16:46;;;;;;;21.10;12.32;;;2.00;67.60;;;;;;5027416;28;20041;-77
2022/03/24 05:19:13;;;;;;;20.83;11.77;;;2.00;67.90;;;;;;5049842;28;20041;-77
2022/03/24 05:21:39;;;;;;;25.80;12.80;;;2.10;67.70;;;;;;5043518;28;20099;-77
2022/03/24 05:24:05;;;;;;;23.45;12.98;;;2.20;68.10;;;;;;5048609;28;20484;-77
2022/03/24 05:26:30;;;;;;;23.83;13.88;;;2.40;67.80;;;;;;5047760;28;20390;-77
2022/03/24 05:28:56;;;;;;;19.33;11.23;;;2.60;66.90;;;;;;5051156;28;20032;-77
2022/03/24 05:31:22;;;;;;;15.00;10.57;;;2.70;66.60;;;;;;5049867;28;20071;-77
2022/03/24 05:33:47;;;;;;;20.92;9.95;;;2.70;66.20;;;;;;5037055;28;20044;-77
2022/03/24 05:36:15;;;;;;;18.55;10.65;;;2.80;66.30;;;;;;5050232;28;20037;-78
2022/03/24 05:38:41;;;;;;;16.42;10.18;;;2.90;65.80;;;;;;5053459;28;20039;-78
2022/03/24 05:41:08;;;;;;;19.65;10.35;;;2.80;65.20;;;;;;5054553;28;20059;-77
2022/03/24 05:43:34;;;;;;;15.45;10.13;;;2.90;65.10;;;;;;5051122;28;20041;-78
2022/03/24 05:46:00;;;;;;;18.63;11.50;;;3.10;65.90;;;;;;5052627;28;20040;-77
2022/03/24 05:48:26;;;;;;;18.60;11.27;;;3.30;66.30;;;;;;5054635;28;20059;-76
2022/03/24 05:50:51;;;;;;;24.55;16.05;;;3.40;64.30;;;;;;5050136;28;20057;-77
2022/03/24 05:53:17;;;;;;;19.88;13.52;;;3.70;64.30;;;;;;5056034;28;20041;-76
2022/03/24 05:55:43;;;;;;;25.35;13.25;;;4.00;64.30;;;;;;5053358;28;20025;-77
2022/03/24 05:58:09;;;;;;;16.05;11.07;;;4.30;63.90;;;;;;5056754;28;20036;-77
2022/03/24 06:00:39;;;;;;;19.60;10.50;;;4.50;63.70;;;;;;5047877;28;20041;-77
2022/03/24 06:03:05;;;;;;;22.85;12.40;;;4.70;63.30;;;;;;5056274;28;20029;-77
2022/03/24 06:05:31;;;;;;;14.95;8.68;;;5.10;63.90;;;;;;5055201;28;20051;-77
2022/03/24 06:08:01;;;;;;;21.77;11.98;;;5.40;62.90;;;;;;5048645;28;20566;-76
2022/03/24 06:10:27;;;;;;;55.92;18.65;;;5.70;60.20;;;;;;5052404;28;20440;-73
2022/03/24 06:12:53;;;;;;;30.70;17.15;;;5.90;60.10;;;;;;5052564;28;20036;-76
2022/03/24 06:15:19;;;;;;;29.42;18.65;;;6.00;61.20;;;;;;5046285;28;20033;-77
2022/03/24 06:17:45;;;;;;;30.65;17.92;;;6.30;60.80;;;;;;5045927;28;20465;-76
2022/03/24 06:20:11;;;;;;;44.63;17.67;;;6.60;60.00;;;;;;5050134;28;20110;-76
2022/03/24 06:22:49;;;;;;;25.13;15.02;;;6.70;60.70;;;;;;5037585;28;20126;-76
2022/03/24 06:25:15;;;;;;;24.15;14.63;;;6.90;61.20;;;;;;5047208;28;20975;-76
2022/03/24 06:27:41;;;;;;;30.85;16.63;;;6.90;60.50;;;;;;5055391;28;20071;-76
2022/03/24 06:30:08;;;;;;;38.70;18.33;;;7.00;60.40;;;;;;5058546;28;20037;-76
2022/03/24 06:32:33;;;;;;;30.10;17.63;;;7.40;59.70;;;;;;5051679;28;20083;-76
2022/03/24 06:34:59;;;;;;;24.48;12.20;;;7.80;58.00;;;;;;5056069;28;20060;-77
2022/03/24 06:37:27;;;;;;;18.27;11.70;;;8.40;55.00;;;;;;5055949;28;20119;-77
2022/03/24 06:39:53;;;;;;;21.25;10.27;;;9.10;56.30;;;;;;5056992;28;20717;-77
2022/03/24 06:42:19;;;;;;;16.95;10.52;;;9.80;52.10;;;;;;5055496;28;20064;-76
2022/03/24 06:44:45;;;;;;;15.80;12.38;;;10.10;51.30;;;;;;5054828;28;20043;-74
2022/03/24 06:47:11;;;;;;;17.15;11.88;;;10.50;48.20;;;;;;5058288;28;20053;-75
2022/03/24 06:49:37;;;;;;;12.07;8.38;;;10.90;47.00;;;;;;5055647;28;20091;-75
2022/03/24 06:52:04;;;;;;;12.65;7.88;;;11.20;45.70;;;;;;5045095;28;20079;-75
2022/03/24 06:54:29;;;;;;;22.92;12.60;;;11.60;44.80;;;;;;5051804;28;20049;-74
2022/03/24 06:56:55;;;;;;;14.07;6.50;;;11.90;43.90;;;;;;5053517;28;20055;-75
2022/03/24 06:59:21;;;;;;;32.30;20.00;;;12.30;41.70;;;;;;5057934;28;20039;-75
2022/03/24 07:01:48;;;;;;;20.48;12.80;;;12.60;42.00;;;;;;5058146;28;20033;-75
2022/03/24 07:04:13;;;;;;;10.65;6.28;;;12.80;41.90;;;;;;5056696;28;20106;-75
2022/03/24 07:06:40;;;;;;;5.78;4.35;;;13.10;39.30;;;;;;5055891;28;20040;-75
2022/03/24 07:09:05;;;;;;;5.18;4.00;;;13.40;38.20;;;;;;5054304;28;20078;-75
2022/03/24 07:11:32;;;;;;;11.68;4.13;;;13.90;38.50;;;;;;5054923;28;20127;-75
2022/03/24 07:13:57;;;;;;;6.40;4.05;;;14.40;33.90;;;;;;5039976;28;20088;-75
2022/03/24 07:16:23;;;;;;;5.32;3.75;;;14.90;34.40;;;;;;5052559;28;20108;-75
2022/03/24 07:18:50;;;;;;;5.65;4.10;;;15.30;32.90;;;;;;5059858;28;20043;-76
2022/03/24 07:21:16;;;;;;;4.15;3.63;;;15.50;33.40;;;;;;5061364;28;20532;-75
2022/03/24 07:23:41;;;;;;;6.22;4.05;;;15.70;32.40;;;;;;5058408;28;20060;-76
2022/03/24 07:26:07;;;;;;;5.32;3.50;;;15.80;32.40;;;;;;5054985;28;20128;-75
2022/03/24 07:28:32;;;;;;;4.35;3.72;;;16.00;32.00;;;;;;5055934;28;20087;-75
2022/03/24 07:31:08;;;;;;;8.57;3.75;;;16.20;31.20;;;;;;5056252;28;20045;-75
2022/03/24 07:33:34;;;;;;;7.03;3.92;;;16.40;30.00;;;;;;5056557;28;20037;-76
2022/03/24 07:36:00;;;;;;;5.25;4.15;;;16.50;29.40;;;;;;5058398;28;20445;-76
2022/03/24 07:38:25;;;;;;;6.03;4.25;;;16.70;29.80;;;;;;5057402;28;20090;-76
2022/03/24 07:40:51;;;;;;;5.60;3.92;;;16.80;29.30;;;;;;5038955;28;20064;-76
2022/03/24 07:43:17;;;;;;;6.40;4.22;;;16.90;29.00;;;;;;5060305;28;20120;-76
2022/03/24 07:45:42;;;;;;;6.45;4.57;;;17.00;29.60;;;;;;5056049;28;20048;-76
2022/03/24 07:48:12;;;;;;;7.32;4.47;;;17.10;29.20;;;;;;5056365;28;20478;-76
2022/03/24 07:50:41;;;;;;;6.60;4.60;;;17.10;28.90;;;;;;5057243;28;21509;-76
2022/03/24 07:53:18;;;;;;;6.75;4.30;;;17.20;28.60;;;;;;5042095;28;20582;-77
2022/03/24 07:55:46;;;;;;;8.20;4.75;;;17.40;28.40;;;;;;5057576;28;20032;-77
2022/03/24 07:58:13;;;;;;;6.18;4.10;;;17.50;28.50;;;;;;5055970;28;20417;-77
2022/03/24 08:00:41;;;;;;;7.20;4.38;;;17.50;29.10;;;;;;5056900;28;20377;-77
2022/03/24 08:03:12;;;;;;;8.55;4.90;;;17.70;28.30;;;;;;5054690;28;20033;-76
2022/03/24 08:05:38;;;;;;;7.63;4.38;;;17.70;27.90;;;;;;5057198;28;20068;-78
2022/03/24 08:08:10;;;;;;;8.30;4.28;;;17.70;28.00;;;;;;5051529;28;20477;-76
2022/03/24 08:10:46;;;;;;;4.63;4.15;;;17.80;27.70;;;;;;5037178;28;20402;-77
2022/03/24 08:13:14;;;;;;;5.78;3.95;;;17.70;27.80;;;;;;5054238;28;20497;-77
2022/03/24 08:15:40;;;;;;;5.80;3.78;;;17.80;27.60;;;;;;5041856;28;20036;-78
2022/03/24 08:18:08;;;;;;;4.40;4.00;;;17.80;27.60;;;;;;5056870;28;20032;-78
2022/03/24 08:20:38;;;;;;;6.57;4.63;;;17.80;27.80;;;;;;5055046;28;20501;-77
2022/03/24 08:23:04;;;;;;;7.70;3.95;;;17.90;28.00;;;;;;5053083;28;20070;-78
2022/03/24 08:25:31;;;;;;;7.90;3.90;;;18.00;27.50;;;;;;5060680;28;20057;-77
2022/03/24 08:27:58;;;;;;;4.90;4.15;;;18.10;27.70;;;;;;5058990;28;20028;-78
2022/03/24 08:30:24;;;;;;;6.38;4.10;;;18.20;27.40;;;;;;5048970;28;20429;-77
2022/03/24 08:32:51;;;;;;;5.22;4.43;;;18.20;27.40;;;;;;5050543;28;20029;-78
2022/03/24 08:35:17;;;;;;;6.18;4.32;;;18.30;27.30;;;;;;5052114;28;20040;-77
2022/03/24 08:37:43;;;;;;;5.43;4.20;;;18.30;26.70;;;;;;5062392;28;20040;-77
2022/03/24 08:40:10;;;;;;;6.20;4.45;;;18.30;26.90;;;;;;5055308;28;20107;-77
2022/03/24 08:42:37;;;;;;;9.98;4.20;;;18.30;26.90;;;;;;4160083;28;10000679;-76
2022/03/24 08:45:07;;;;;;;6.25;4.35;;;18.30;27.00;;;;;;5053299;28;20048;-77
2022/03/24 08:47:34;;;;;;;6.20;4.00;;;18.30;26.70;;;;;;5052449;28;20071;-76
2022/03/24 08:50:00;;;;;;;5.95;3.95;;;18.40;26.60;;;;;;5048266;28;20115;-77
2022/03/24 08:52:27;;;;;;;11.90;4.00;;;18.40;26.60;;;;;;5056400;28;20570;-76
2022/03/24 08:54:54;;;;;;;5.55;3.95;;;18.40;25.70;;;;;;5056785;28;20048;-76
2022/03/24 08:57:26;;;;;;;5.10;4.20;;;18.40;27.40;;;;;;5055572;28;20041;-76
2022/03/24 08:59:53;;;;;;;5.38;4.10;;;18.50;26.00;;;;;;5052554;28;20040;-76
2022/03/24 09:02:20;;;;;;;8.45;4.88;;;18.60;27.30;;;;;;5051549;28;20040;-76
2022/03/24 09:04:46;;;;;;;8.80;4.50;;;18.70;25.90;;;;;;5056903;28;20039;-76
2022/03/24 09:07:12;;;;;;;4.53;3.88;;;18.80;26.20;;;;;;5057448;28;20076;-76
2022/03/24 09:09:38;;;;;;;7.35;4.38;;;18.80;26.90;;;;;;5041533;28;20078;-75
2022/03/24 09:12:04;;;;;;;5.30;4.00;;;18.90;26.80;;;;;;5052000;28;20043;-77
2022/03/24 09:14:29;;;;;;;5.63;4.43;;;18.90;25.80;;;;;;5051938;28;20044;-76
2022/03/24 09:16:55;;;;;;;7.65;4.60;;;18.90;26.30;;;;;;5050758;28;20560;-77
2022/03/24 09:19:22;;;;;;;5.35;4.57;;;19.00;25.30;;;;;;5065423;28;20036;-77
2022/03/24 09:21:48;;;;;;;7.45;3.80;;;19.00;26.90;;;;;;5054618;28;20067;-77
2022/03/24 09:24:14;;;;;;;6.18;4.07;;;19.10;26.60;;;;;;5054321;28;20037;-78
2022/03/24 09:26:39;;;;;;;4.50;4.10;;;19.20;25.70;;;;;;5044599;28;20079;-77
2022/03/24 09:29:05;;;;;;;6.38;4.30;;;19.30;26.40;;;;;;5052071;28;20426;-77
2022/03/24 09:31:30;;;;;;;4.50;4.10;;;19.40;26.20;;;;;;5054578;28;20045;-77
2022/03/24 09:33:56;;;;;;;4.97;4.40;;;19.40;26.10;;;;;;5049516;28;20057;-76
2022/03/24 09:36:22;;;;;;;13.07;4.32;;;19.50;25.60;;;;;;5052485;28;20064;-78
2022/03/24 09:38:47;;;;;;;6.95;3.88;;;19.60;25.80;;;;;;5055737;28;20033;-76
2022/03/24 09:41:16;;;;;;;9.13;5.05;;;19.70;24.90;;;;;;5035570;28;20045;-76
2022/03/24 09:43:42;;;;;;;7.85;4.70;;;19.70;24.70;;;;;;5049877;28;20024;-76
2022/03/24 09:46:09;;;;;;;9.75;5.20;;;19.70;24.80;;;;;;5053391;28;20047;-77
2022/03/24 09:48:35;;;;;;;10.20;4.30;;;19.80;25.90;;;;;;5051475;28;20045;-77
2022/03/24 09:51:01;;;;;;;7.55;4.13;;;20.00;25.60;;;;;;5049411;28;20079;-77
2022/03/24 09:53:27;;;;;;;5.57;4.07;;;20.00;25.70;;;;;;5052194;28;20064;-79
2022/03/24 09:55:53;;;;;;;6.07;3.97;;;20.10;24.50;;;;;;5052311;28;20072;-77
2022/03/24 09:58:24;;;;;;;4.65;4.07;;;20.10;24.60;;;;;;5049857;28;20064;-77
2022/03/24 10:00:50;;;;;;;4.93;4.28;;;20.10;24.80;;;;;;5050624;28;20021;-76
2022/03/24 10:03:21;;;;;;;5.78;3.88;;;20.20;24.70;;;;;;5049415;28;20051;-76
2022/03/24 10:05:54;;;;;;;6.10;4.15;;;20.40;24.80;;;;;;5056583;28;20032;-77
2022/03/24 10:08:20;;;;;;;5.45;4.03;;;20.50;24.60;;;;;;5050939;28;20045;-77
2022/03/24 10:10:45;;;;;;;6.18;4.30;;;20.50;25.80;;;;;;5059907;28;20104;-76
2022/03/24 10:13:11;;;;;;;5.88;4.78;;;20.60;24.10;;;;;;5050973;28;20122;-77
2022/03/24 10:15:40;;;;;;;6.00;4.55;;;20.60;24.50;;;;;;5053085;28;20108;-77
2022/03/24 10:18:14;;;;;;;6.32;4.30;;;20.70;24.80;;;;;;5053421;28;20430;-77
2022/03/24 10:20:40;;;;;;;6.90;4.18;;;20.60;23.60;;;;;;5051896;28;20033;-77
2022/03/24 10:23:06;;;;;;;4.55;4.15;;;20.70;25.40;;;;;;5050078;28;20550;-77
2022/03/24 10:25:35;;;;;;;4.93;4.43;;;20.70;24.70;;;;;;5057575;28;20086;-77
2022/03/24 10:28:04;;;;;;;5.50;4.38;;;20.70;24.90;;;;;;5056235;28;20121;-78
2022/03/24 10:30:52;;;;;;;4.75;4.03;;;20.70;24.70;;;;;;5053926;28;20502;-77
2022/03/24 10:33:27;;;;;;;4.80;4.30;;;20.70;23.30;;;;;;5059724;28;20040;-78
2022/03/24 10:36:09;;;;;;;6.90;4.30;;;20.70;24.00;;;;;;5049172;28;20055;-77
2022/03/24 10:38:39;;;;;;;7.63;3.88;;;20.70;24.30;;;;;;5051978;28;20505;-77
2022/03/24 10:41:18;;;;;;;7.45;4.63;;;20.70;24.00;;;;;;5051632;28;20033;-77
2022/03/24 10:43:44;;;;;;;6.97;4.22;;;20.70;24.00;;;;;;5050822;28;20048;-76
2022/03/24 10:46:18;;;;;;;5.65;4.63;;;20.60;25.00;;;;;;5054625;28;20052;-76
2022/03/24 10:48:47;;;;;;;6.18;4.60;;;20.70;25.30;;;;;;5055775;28;20052;-76
2022/03/24 10:51:31;;;;;;;5.53;4.18;;;20.80;24.50;;;;;;5051806;28;20039;-77
2022/03/24 10:54:15;;;;;;;4.72;4.22;;;20.90;24.40;;;;;;5053667;28;20045;-77
2022/03/24 10:57:13;;;;;;;5.07;4.57;;;20.80;23.50;;;;;;5049740;28;20413;-76
2022/03/24 10:59:43;;;;;;;6.18;4.15;;;20.90;23.00;;;;;;5052360;28;20467;-77
2022/03/24 11:02:10;;;;;;;5.22;4.38;;;20.80;24.00;;;;;;5054664;28;20033;-76
2022/03/24 11:04:35;;;;;;;6.65;4.40;;;20.80;23.50;;;;;;5052799;28;20029;-76
2022/03/24 11:07:01;;;;;;;4.97;3.67;;;20.80;23.70;;;;;;5052490;28;20548;-76
2022/03/24 11:09:29;;;;;;;5.50;4.18;;;20.70;23.90;;;;;;5055217;28;20099;-76
2022/03/24 11:12:24;;;;;;;4.03;3.63;;;20.80;24.00;;;;;;5056988;28;20068;-77
2022/03/24 11:14:51;;;;;;;5.82;3.97;;;20.90;23.90;;;;;;5048745;28;20059;-77
2022/03/24 11:17:23;;;;;;;7.43;4.70;;;20.90;23.50;;;;;;5038156;28;20559;-77
2022/03/24 11:20:00;;;;;;;6.82;4.05;;;20.80;24.10;;;;;;5059117;28;20190;-76
2022/03/24 11:22:54;;;;;;;5.80;4.63;;;20.70;24.00;;;;;;5053174;28;20041;-77
2022/03/24 11:25:21;;;;;;;9.88;4.60;;;20.70;23.80;;;;;;5048090;28;20025;-77
2022/03/24 11:27:48;;;;;;;9.73;4.75;;;21.00;23.50;;;;;;5054619;28;20031;-77
2022/03/24 11:30:15;;;;;;;6.70;4.55;;;21.00;24.00;;;;;;5051214;28;20048;-77
2022/03/24 11:32:43;;;;;;;4.60;3.97;;;21.00;24.20;;;;;;5053251;28;20392;-76
2022/03/24 11:35:10;;;;;;;6.75;4.53;;;21.10;24.10;;;;;;5050202;28;20037;-76
2022/03/24 11:37:37;;;;;;;6.32;4.82;;;21.00;24.10;;;;;;5053127;28;20555;-76
2022/03/24 11:40:23;;;;;;;5.93;4.28;;;21.10;23.90;;;;;;5054686;28;20048;-77
2022/03/24 11:43:04;;;;;;;9.10;4.32;;;21.10;23.10;;;;;;5049350;28;20199;-77
2022/03/24 11:45:49;;;;;;;5.10;4.22;;;21.10;23.40;;;;;;5051458;28;20120;-77
2022/03/24 11:48:17;;;;;;;7.95;4.50;;;21.10;24.10;;;;;;5052164;28;20033;-77
2022/03/24 11:50:55;;;;;;;8.38;4.90;;;21.10;23.80;;;;;;5054295;28;20919;-77
2022/03/24 11:53:27;;;;;;;5.50;4.90;;;21.10;24.30;;;;;;5055645;28;20401;-77
2022/03/24 11:55:59;;;;;;;5.18;4.68;;;21.10;24.10;;;;;;5044432;28;20033;-77
2022/03/24 11:58:31;;;;;;;5.40;4.35;;;21.10;24.60;;;;;;5057202;28;20509;-76
2022/03/24 12:01:17;;;;;;;7.15;5.20;;;21.10;24.90;;;;;;5050977;28;20209;-76
2022/03/24 12:04:04;;;;;;;10.57;5.40;;;21.10;24.60;;;;;;5047988;28;20036;-77
2022/03/24 12:06:46;;;;;;;6.38;4.95;;;21.10;24.60;;;;;;5051827;28;20373;-76
2022/03/24 12:09:17;;;;;;;6.30;5.40;;;21.20;25.40;;;;;;5050516;28;20426;-76
2022/03/24 12:11:53;;;;;;;7.93;5.30;;;21.30;24.60;;;;;;5055530;28;20025;-76
2022/03/24 12:14:30;;;;;;;6.57;5.50;;;21.30;24.90;;;;;;5051996;28;20391;-76
2022/03/24 12:16:56;;;;;;;5.55;4.95;;;21.40;24.10;;;;;;5049323;28;20040;-77
2022/03/24 12:19:40;;;;;;;6.60;5.15;;;21.40;25.00;;;;;;5042239;28;20684;-76
2022/03/24 12:22:35;;;;;;;5.60;5.03;;;21.40;23.80;;;;;;5059456;28;20048;-76
2022/03/24 12:25:01;;;;;;;7.78;5.32;;;21.40;23.70;;;;;;5048962;28;20032;-76
2022/03/24 12:27:32;;;;;;;6.25;5.35;;;21.50;25.10;;;;;;5052854;28;20412;-76
2022/03/24 12:30:18;;;;;;;7.18;5.20;;;21.70;24.30;;;;;;5051045;28;20824;-76
2022/03/24 12:33:02;;;;;;;5.78;5.28;;;21.60;24.60;;;;;;5037516;28;20052;-76
2022/03/24 12:35:39;;;;;;;9.18;4.47;;;21.80;24.40;;;;;;5054818;28;20045;-77
2022/03/24 12:38:35;;;;;;;5.22;4.00;;;21.60;23.20;;;;;;5057705;28;20488;-76
2022/03/24 12:41:04;;;;;;;5.18;4.68;;;21.50;23.90;;;;;;5053514;28;20043;-76
2022/03/24 12:43:49;;;;;;;6.45;4.88;;;21.60;23.40;;;;;;5057385;28;20119;-76
2022/03/24 12:46:37;;;;;;;8.88;4.90;;;21.70;23.40;;;;;;5054422;28;20036;-76
2022/03/24 12:49:14;;;;;;;5.03;4.55;;;21.70;23.00;;;;;;5044329;28;20051;-76
2022/03/24 12:52:11;;;;;;;5.03;4.28;;;21.70;23.60;;;;;;5049029;28;20043;-76
2022/03/24 12:54:44;;;;;;;6.05;4.35;;;21.60;22.80;;;;;;5045613;28;20067;-76